sensor_id;sensor_type;location;lat;lon;timestamp;pressure;altitude;pressure_sealevel;temperature;humidity
32761;BME280;19126;47.472;7.850;2022-11-03T00:01:31;97010.25;;;4.59;14.90
32761;BME280;19126;47.472;7.850;2022-11-03T00:03:59;97010.34;;;4.58;14.78
32761;BME280;19126;47.472;7.850;2022-11-03T00:06:26;97009.91;;;4.52;14.65
32761;BME280;19126;47.472;7.850;2022-11-03T00:08:57;97006.59;;;4.50;14.83
32761;BME280;19126;47.472;7.850;2022-11-03T00:11:25;96998.34;;;4.45;14.74
32761;BME280;19126;47.472;7.850;2022-11-03T00:13:52;97015.88;;;4.43;14.38
32761;BME280;19126;47.472;7.850;2022-11-03T00:16:19;97005.47;;;4.43;14.47
32761;BME280;19126;47.472;7.850;2022-11-03T00:18:47;97014.34;;;4.40;14.40
32761;BME280;19126;47.472;7.850;2022-11-03T00:21:15;97013.66;;;4.38;15.25
32761;BME280;19126;47.472;7.850;2022-11-03T00:23:43;97009.75;;;4.33;15.20
32761;BME280;19126;47.472;7.850;2022-11-03T00:26:13;97010.47;;;4.35;15.04
32761;BME280;19126;47.472;7.850;2022-11-03T00:28:42;97003.50;;;4.35;14.41
32761;BME280;19126;47.472;7.850;2022-11-03T00:31:12;97008.97;;;4.32;14.54
32761;BME280;19126;47.472;7.850;2022-11-03T00:33:40;97007.31;;;4.31;14.14
32761;BME280;19126;47.472;7.850;2022-11-03T00:36:12;97000.56;;;4.29;15.31
32761;BME280;19126;47.472;7.850;2022-11-03T00:38:41;96994.81;;;4.25;15.13
32761;BME280;19126;47.472;7.850;2022-11-03T00:41:09;96996.69;;;4.23;14.60
32761;BME280;19126;47.472;7.850;2022-11-03T00:43:37;97007.81;;;4.25;14.81
32761;BME280;19126;47.472;7.850;2022-11-03T00:46:06;97013.25;;;4.22;14.12
32761;BME280;19126;47.472;7.850;2022-11-03T00:48:35;97010.91;;;4.19;14.15
32761;BME280;19126;47.472;7.850;2022-11-03T00:51:05;97012.66;;;4.18;14.42
32761;BME280;19126;47.472;7.850;2022-11-03T00:53:35;97020.34;;;4.20;14.67
32761;BME280;19126;47.472;7.850;2022-11-03T00:56:06;97005.31;;;4.23;14.66
32761;BME280;19126;47.472;7.850;2022-11-03T00:58:33;97002.00;;;4.21;14.00
32761;BME280;19126;47.472;7.850;2022-11-03T01:01:04;97007.91;;;4.23;14.27
32761;BME280;19126;47.472;7.850;2022-11-03T01:03:34;97007.22;;;4.21;14.51
32761;BME280;19126;47.472;7.850;2022-11-03T01:06:04;97003.22;;;4.17;13.90
32761;BME280;19126;47.472;7.850;2022-11-03T01:08:49;96995.91;;;4.11;15.05
32761;BME280;19126;47.472;7.850;2022-11-03T01:11:20;96994.97;;;4.12;14.44
32761;BME280;19126;47.472;7.850;2022-11-03T01:14:06;96986.81;;;4.17;14.44
32761;BME280;19126;47.472;7.850;2022-11-03T01:16:33;96986.34;;;4.12;13.85
32761;BME280;19126;47.472;7.850;2022-11-03T01:19:00;96980.19;;;4.13;13.69
32761;BME280;19126;47.472;7.850;2022-11-03T01:21:28;96977.84;;;4.09;14.68
32761;BME280;19126;47.472;7.850;2022-11-03T01:23:55;96972.06;;;4.06;14.33
32761;BME280;19126;47.472;7.850;2022-11-03T01:26:24;96969.34;;;4.07;13.71
32761;BME280;19126;47.472;7.850;2022-11-03T01:28:51;96962.25;;;4.09;14.61
32761;BME280;19126;47.472;7.850;2022-11-03T01:31:22;96962.50;;;4.06;13.94
32761;BME280;19126;47.472;7.850;2022-11-03T01:33:52;96964.97;;;4.08;13.43
32761;BME280;19126;47.472;7.850;2022-11-03T01:36:19;96963.31;;;4.07;13.72
32761;BME280;19126;47.472;7.850;2022-11-03T01:38:47;96969.22;;;4.09;13.76
32761;BME280;19126;47.472;7.850;2022-11-03T01:41:17;96955.75;;;4.04;14.14
32761;BME280;19126;47.472;7.850;2022-11-03T01:43:48;96948.66;;;4.06;13.53
32761;BME280;19126;47.472;7.850;2022-11-03T01:46:21;96954.44;;;4.09;13.93
32761;BME280;19126;47.472;7.850;2022-11-03T01:49:01;96958.00;;;4.08;13.97
32761;BME280;19126;47.472;7.850;2022-11-03T01:51:30;96946.31;;;4.03;13.48
32761;BME280;19126;47.472;7.850;2022-11-03T01:54:03;96941.94;;;4.03;13.94
32761;BME280;19126;47.472;7.850;2022-11-03T01:56:34;96930.34;;;4.07;13.14
32761;BME280;19126;47.472;7.850;2022-11-03T01:59:05;96930.91;;;4.11;13.81
32761;BME280;19126;47.472;7.850;2022-11-03T02:01:33;96926.66;;;4.10;13.96
32761;BME280;19126;47.472;7.850;2022-11-03T02:04:04;96928.56;;;4.08;13.76
32761;BME280;19126;47.472;7.850;2022-11-03T02:06:34;96922.91;;;4.03;14.04
32761;BME280;19126;47.472;7.850;2022-11-03T02:09:05;96915.13;;;4.03;13.15
32761;BME280;19126;47.472;7.850;2022-11-03T02:11:33;96914.06;;;4.05;13.87
32761;BME280;19126;47.472;7.850;2022-11-03T02:14:20;96907.47;;;4.01;13.52
32761;BME280;19126;47.472;7.850;2022-11-03T02:16:52;96902.25;;;4.01;13.14
32761;BME280;19126;47.472;7.850;2022-11-03T02:19:30;96902.50;;;3.98;13.22
32761;BME280;19126;47.472;7.850;2022-11-03T02:22:06;96892.81;;;4.00;12.81
32761;BME280;19126;47.472;7.850;2022-11-03T02:24:47;96884.06;;;4.01;13.32
32761;BME280;19126;47.472;7.850;2022-11-03T02:27:17;96886.19;;;3.96;12.64
32761;BME280;19126;47.472;7.850;2022-11-03T02:29:45;96873.59;;;3.91;13.54
32761;BME280;19126;47.472;7.850;2022-11-03T02:32:20;96878.78;;;3.91;12.61
32761;BME280;19126;47.472;7.850;2022-11-03T02:34:53;96876.19;;;3.91;13.23
32761;BME280;19126;47.472;7.850;2022-11-03T02:37:27;96865.91;;;3.90;13.59
32761;BME280;19126;47.472;7.850;2022-11-03T02:39:56;96873.13;;;3.86;14.06
32761;BME280;19126;47.472;7.850;2022-11-03T02:42:28;96873.69;;;3.90;13.82
32761;BME280;19126;47.472;7.850;2022-11-03T02:45:00;96876.81;;;3.84;13.48
32761;BME280;19126;47.472;7.850;2022-11-03T02:47:29;96867.59;;;3.79;14.01
32761;BME280;19126;47.472;7.850;2022-11-03T02:49:58;96868.44;;;3.80;12.93
32761;BME280;19126;47.472;7.850;2022-11-03T02:52:37;96869.75;;;3.74;13.97
32761;BME280;19126;47.472;7.850;2022-11-03T02:55:12;96861.00;;;3.75;13.56
32761;BME280;19126;47.472;7.850;2022-11-03T02:57:48;96857.59;;;3.75;13.17
32761;BME280;19126;47.472;7.850;2022-11-03T03:00:19;96849.81;;;3.75;13.69
32761;BME280;19126;47.472;7.850;2022-11-03T03:02:54;96842.00;;;3.75;12.79
32761;BME280;19126;47.472;7.850;2022-11-03T03:05:26;96841.88;;;3.76;13.04
32761;BME280;19126;47.472;7.850;2022-11-03T03:08:00;96836.81;;;3.75;13.39
32761;BME280;19126;47.472;7.850;2022-11-03T03:10:31;96834.72;;;3.69;13.46
32761;BME280;19126;47.472;7.850;2022-11-03T03:13:03;96831.03;;;3.71;13.68
32761;BME280;19126;47.472;7.850;2022-11-03T03:15:40;96826.34;;;3.65;13.10
32761;BME280;19126;47.472;7.850;2022-11-03T03:18:19;96824.00;;;3.62;13.01
32761;BME280;19126;47.472;7.850;2022-11-03T03:20:54;96817.84;;;3.63;13.70
32761;BME280;19126;47.472;7.850;2022-11-03T03:23:25;96810.91;;;3.63;13.73
32761;BME280;19126;47.472;7.850;2022-11-03T03:25:59;96805.69;;;3.63;13.42
32761;BME280;19126;47.472;7.850;2022-11-03T03:28:34;96800.50;;;3.63;13.45
32761;BME280;19126;47.472;7.850;2022-11-03T03:31:08;96799.81;;;3.61;13.06
32761;BME280;19126;47.472;7.850;2022-11-03T03:33:37;96793.53;;;3.64;13.10
32761;BME280;19126;47.472;7.850;2022-11-03T03:36:11;96798.47;;;3.67;12.80
32761;BME280;19126;47.472;7.850;2022-11-03T03:38:45;96787.13;;;3.68;13.30
32761;BME280;19126;47.472;7.850;2022-11-03T03:41:15;96779.75;;;3.73;12.51
32761;BME280;19126;47.472;7.850;2022-11-03T03:43:48;96775.00;;;3.78;12.94
32761;BME280;19126;47.472;7.850;2022-11-03T03:46:18;96779.00;;;3.83;12.07
32761;BME280;19126;47.472;7.850;2022-11-03T03:48:47;96782.03;;;3.88;12.25
32761;BME280;19126;47.472;7.850;2022-11-03T03:51:16;96774.81;;;3.91;12.27
32761;BME280;19126;47.472;7.850;2022-11-03T03:53:49;96766.94;;;4.03;12.19
32761;BME280;19126;47.472;7.850;2022-11-03T03:56:19;96774.75;;;4.03;11.90
32761;BME280;19126;47.472;7.850;2022-11-03T03:58:50;96772.59;;;4.08;12.42
32761;BME280;19126;47.472;7.850;2022-11-03T04:01:17;96773.84;;;4.14;12.08
32761;BME280;19126;47.472;7.850;2022-11-03T04:03:44;96765.09;;;4.15;12.88
32761;BME280;19126;47.472;7.850;2022-11-03T04:06:11;96769.09;;;4.19;12.58
32761;BME280;19126;47.472;7.850;2022-11-03T04:08:39;96764.44;;;4.22;12.30
32761;BME280;19126;47.472;7.850;2022-11-03T04:11:06;96756.53;;;4.24;11.97
32761;BME280;19126;47.472;7.850;2022-11-03T04:13:52;96750.91;;;4.29;12.56
32761;BME280;19126;47.472;7.850;2022-11-03T04:16:36;96750.53;;;4.33;12.62
32761;BME280;19126;47.472;7.850;2022-11-03T04:19:21;96755.59;;;4.35;12.10
32761;BME280;19126;47.472;7.850;2022-11-03T04:22:06;96759.56;;;4.39;12.35
32761;BME280;19126;47.472;7.850;2022-11-03T04:24:45;96750.81;;;4.40;11.84
32761;BME280;19126;47.472;7.850;2022-11-03T04:27:34;96743.31;;;4.47;11.98
32761;BME280;19126;47.472;7.850;2022-11-03T04:30:12;96748.78;;;4.53;12.24
32761;BME280;19126;47.472;7.850;2022-11-03T04:32:41;96741.69;;;4.55;12.44
32761;BME280;19126;47.472;7.850;2022-11-03T04:35:22;96734.97;;;4.53;12.53
32761;BME280;19126;47.472;7.850;2022-11-03T04:37:54;96743.47;;;4.55;12.41
32761;BME280;19126;47.472;7.850;2022-11-03T04:40:23;96752.41;;;4.62;12.27
32761;BME280;19126;47.472;7.850;2022-11-03T04:42:50;96745.53;;;4.61;11.88
32761;BME280;19126;47.472;7.850;2022-11-03T04:45:29;96742.78;;;4.63;12.62
32761;BME280;19126;47.472;7.850;2022-11-03T04:47:59;96736.63;;;4.64;12.66
32761;BME280;19126;47.472;7.850;2022-11-03T04:50:27;96728.28;;;4.60;12.37
32761;BME280;19126;47.472;7.850;2022-11-03T04:52:57;96736.63;;;4.64;12.18
32761;BME280;19126;47.472;7.850;2022-11-03T04:55:25;96732.38;;;4.63;12.10
32761;BME280;19126;47.472;7.850;2022-11-03T04:57:56;96731.56;;;4.62;12.78
32761;BME280;19126;47.472;7.850;2022-11-03T05:00:25;96727.59;;;4.68;12.46
32761;BME280;19126;47.472;7.850;2022-11-03T05:02:53;96715.56;;;4.77;12.82
32761;BME280;19126;47.472;7.850;2022-11-03T05:05:23;96715.00;;;4.73;12.49
32761;BME280;19126;47.472;7.850;2022-11-03T05:07:52;96714.06;;;4.74;12.55
32761;BME280;19126;47.472;7.850;2022-11-03T05:10:23;96715.72;;;4.85;12.94
32761;BME280;19126;47.472;7.850;2022-11-03T05:12:51;96713.53;;;4.90;12.58
32761;BME280;19126;47.472;7.850;2022-11-03T05:15:32;96710.50;;;4.85;12.70
32761;BME280;19126;47.472;7.850;2022-11-03T05:18:14;96702.97;;;4.92;12.65
32761;BME280;19126;47.472;7.850;2022-11-03T05:20:48;96706.53;;;5.01;12.76
32761;BME280;19126;47.472;7.850;2022-11-03T05:23:16;96701.47;;;5.28;12.56
32761;BME280;19126;47.472;7.850;2022-11-03T05:25:46;96706.66;;;5.38;12.87
32761;BME280;19126;47.472;7.850;2022-11-03T05:28:25;96703.06;;;5.49;12.79
32761;BME280;19126;47.472;7.850;2022-11-03T05:30:55;96694.44;;;5.49;12.47
32761;BME280;19126;47.472;7.850;2022-11-03T05:33:28;96698.69;;;5.40;12.87
32761;BME280;19126;47.472;7.850;2022-11-03T05:36:02;96695.69;;;5.35;12.81
32761;BME280;19126;47.472;7.850;2022-11-03T05:38:32;96687.19;;;5.33;12.86
32761;BME280;19126;47.472;7.850;2022-11-03T05:41:01;96685.84;;;5.28;12.91
32761;BME280;19126;47.472;7.850;2022-11-03T05:43:28;96677.63;;;5.23;12.89
32761;BME280;19126;47.472;7.850;2022-11-03T05:46:00;96674.44;;;5.20;12.64
32761;BME280;19126;47.472;7.850;2022-11-03T05:48:32;96675.56;;;5.17;13.31
32761;BME280;19126;47.472;7.850;2022-11-03T05:51:01;96670.19;;;5.19;12.93
32761;BME280;19126;47.472;7.850;2022-11-03T05:53:38;96671.03;;;5.19;13.13
32761;BME280;19126;47.472;7.850;2022-11-03T05:56:15;96668.44;;;5.19;12.76
32761;BME280;19126;47.472;7.850;2022-11-03T05:58:44;96665.00;;;5.19;12.74
32761;BME280;19126;47.472;7.850;2022-11-03T06:01:19;96663.22;;;5.19;12.85
32761;BME280;19126;47.472;7.850;2022-11-03T06:03:49;96664.31;;;5.36;13.07
32761;BME280;19126;47.472;7.850;2022-11-03T06:06:22;96661.44;;;5.39;12.90
32761;BME280;19126;47.472;7.850;2022-11-03T06:08:51;96658.66;;;5.41;12.71
32761;BME280;19126;47.472;7.850;2022-11-03T06:11:26;96647.84;;;5.46;13.46
32761;BME280;19126;47.472;7.850;2022-11-03T06:13:56;96649.56;;;5.65;13.05
32761;BME280;19126;47.472;7.850;2022-11-03T06:16:41;96640.75;;;5.76;13.28
32761;BME280;19126;47.472;7.850;2022-11-03T06:19:23;96633.72;;;5.76;13.45
32761;BME280;19126;47.472;7.850;2022-11-03T06:21:55;96631.13;;;5.76;12.71
32761;BME280;19126;47.472;7.850;2022-11-03T06:24:29;96632.19;;;5.83;12.66
32761;BME280;19126;47.472;7.850;2022-11-03T06:26:56;96622.25;;;5.97;13.03
32761;BME280;19126;47.472;7.850;2022-11-03T06:29:24;96620.72;;;6.04;13.09
32761;BME280;19126;47.472;7.850;2022-11-03T06:31:55;96613.25;;;6.19;12.84
32761;BME280;19126;47.472;7.850;2022-11-03T06:34:42;96610.56;;;6.29;13.01
32761;BME280;19126;47.472;7.850;2022-11-03T06:37:19;96612.19;;;6.30;13.51
32761;BME280;19126;47.472;7.850;2022-11-03T06:39:47;96618.25;;;6.30;12.82
32761;BME280;19126;47.472;7.850;2022-11-03T06:42:19;96616.63;;;6.29;13.38
32761;BME280;19126;47.472;7.850;2022-11-03T06:44:48;96617.41;;;6.30;12.96
32761;BME280;19126;47.472;7.850;2022-11-03T06:47:25;96608.78;;;6.29;13.00
32761;BME280;19126;47.472;7.850;2022-11-03T06:49:55;96614.38;;;6.35;12.63
32761;BME280;19126;47.472;7.850;2022-11-03T06:52:29;96610.44;;;6.49;13.13
32761;BME280;19126;47.472;7.850;2022-11-03T06:55:20;96609.09;;;6.63;13.13
32761;BME280;19126;47.472;7.850;2022-11-03T06:57:49;96609.84;;;6.73;12.55
32761;BME280;19126;47.472;7.850;2022-11-03T07:00:21;96614.69;;;6.86;12.86
32761;BME280;19126;47.472;7.850;2022-11-03T07:03:05;96613.31;;;7.00;12.66
32761;BME280;19126;47.472;7.850;2022-11-03T07:05:34;96618.47;;;7.10;12.67
32761;BME280;19126;47.472;7.850;2022-11-03T07:08:13;96623.53;;;7.11;12.28
32761;BME280;19126;47.472;7.850;2022-11-03T07:10:43;96605.16;;;7.21;12.85
32761;BME280;19126;47.472;7.850;2022-11-03T07:13:14;96610.19;;;7.41;12.96
32761;BME280;19126;47.472;7.850;2022-11-03T07:15:45;96599.38;;;8.13;12.49
32761;BME280;19126;47.472;7.850;2022-11-03T07:18:20;96607.56;;;8.18;13.01
32761;BME280;19126;47.472;7.850;2022-11-03T07:20:49;96606.25;;;8.14;13.41
32761;BME280;19126;47.472;7.850;2022-11-03T07:23:20;96604.47;;;8.15;12.58
32761;BME280;19126;47.472;7.850;2022-11-03T07:25:51;96604.94;;;8.10;13.75
32761;BME280;19126;47.472;7.850;2022-11-03T07:28:22;96604.59;;;8.05;15.40
32761;BME280;19126;47.472;7.850;2022-11-03T07:30:50;96597.88;;;8.02;18.13
32761;BME280;19126;47.472;7.850;2022-11-03T07:33:24;96597.81;;;7.94;19.40
32761;BME280;19126;47.472;7.850;2022-11-03T07:35:55;96594.75;;;7.99;22.15
32761;BME280;19126;47.472;7.850;2022-11-03T07:38:25;96593.88;;;7.90;28.50
32761;BME280;19126;47.472;7.850;2022-11-03T07:40:56;96600.16;;;7.97;33.02
32761;BME280;19126;47.472;7.850;2022-11-03T07:43:29;96598.56;;;8.13;38.33
32761;BME280;19126;47.472;7.850;2022-11-03T07:45:59;96599.22;;;8.15;42.61
32761;BME280;19126;47.472;7.850;2022-11-03T07:48:37;96598.28;;;8.24;45.65
32761;BME280;19126;47.472;7.850;2022-11-03T07:51:17;96601.53;;;8.26;51.64
32761;BME280;19126;47.472;7.850;2022-11-03T07:53:48;96597.97;;;8.35;56.46
32761;BME280;19126;47.472;7.850;2022-11-03T07:56:19;96602.91;;;8.47;60.69
32761;BME280;19126;47.472;7.850;2022-11-03T07:58:50;96592.78;;;8.52;63.96
32761;BME280;19126;47.472;7.850;2022-11-03T08:01:27;96590.28;;;8.42;69.83
32761;BME280;19126;47.472;7.850;2022-11-03T08:04:00;96590.50;;;8.57;74.59
32761;BME280;19126;47.472;7.850;2022-11-03T08:06:29;96580.38;;;8.62;77.28
32761;BME280;19126;47.472;7.850;2022-11-03T08:08:57;96587.06;;;8.73;78.04
32761;BME280;19126;47.472;7.850;2022-11-03T08:11:25;96588.88;;;8.73;81.46
32761;BME280;19126;47.472;7.850;2022-11-03T08:13:53;96592.47;;;8.80;83.61
32761;BME280;19126;47.472;7.850;2022-11-03T08:16:20;96606.56;;;8.96;82.07
32761;BME280;19126;47.472;7.850;2022-11-03T08:18:47;96590.00;;;9.28;79.88
32761;BME280;19126;47.472;7.850;2022-11-03T08:21:16;96593.66;;;9.67;80.37
32761;BME280;19126;47.472;7.850;2022-11-03T08:23:43;96589.81;;;10.18;80.66
32761;BME280;19126;47.472;7.850;2022-11-03T08:26:10;96586.59;;;10.70;82.49
32761;BME280;19126;47.472;7.850;2022-11-03T08:28:37;96593.56;;;11.02;93.68
32761;BME280;19126;47.472;7.850;2022-11-03T08:31:05;96582.44;;;11.14;100.00
32761;BME280;19126;47.472;7.850;2022-11-03T08:33:33;96580.09;;;11.20;100.00
32761;BME280;19126;47.472;7.850;2022-11-03T08:36:02;96570.63;;;10.95;100.00
32761;BME280;19126;47.472;7.850;2022-11-03T08:38:31;96572.69;;;10.85;100.00
32761;BME280;19126;47.472;7.850;2022-11-03T08:40:58;96564.41;;;10.73;100.00
32761;BME280;19126;47.472;7.850;2022-11-03T08:43:26;96568.78;;;10.81;100.00
32761;BME280;19126;47.472;7.850;2022-11-03T08:45:54;96556.81;;;10.78;100.00
32761;BME280;19126;47.472;7.850;2022-11-03T08:48:22;96548.84;;;10.87;100.00
32761;BME280;19126;47.472;7.850;2022-11-03T08:50:52;96542.84;;;11.16;100.00
32761;BME280;19126;47.472;7.850;2022-11-03T08:53:21;96529.69;;;11.31;100.00
32761;BME280;19126;47.472;7.850;2022-11-03T08:55:50;96529.31;;;11.64;100.00
32761;BME280;19126;47.472;7.850;2022-11-03T08:58:17;96528.00;;;11.90;100.00
32761;BME280;19126;47.472;7.850;2022-11-03T09:00:44;96533.03;;;12.22;100.00
32761;BME280;19126;47.472;7.850;2022-11-03T09:03:11;96527.78;;;12.65;100.00
32761;BME280;19126;47.472;7.850;2022-11-03T09:05:39;96516.16;;;13.10;100.00
32761;BME280;19126;47.472;7.850;2022-11-03T09:08:06;96522.41;;;13.30;100.00
32761;BME280;19126;47.472;7.850;2022-11-03T09:10:34;96521.41;;;13.73;100.00
32761;BME280;19126;47.472;7.850;2022-11-03T09:13:02;96510.84;;;13.73;100.00
32761;BME280;19126;47.472;7.850;2022-11-03T09:15:30;96508.13;;;14.09;100.00
32761;BME280;19126;47.472;7.850;2022-11-03T09:17:57;96505.13;;;14.32;100.00
32761;BME280;19126;47.472;7.850;2022-11-03T09:20:24;96500.47;;;14.54;100.00
32761;BME280;19126;47.472;7.850;2022-11-03T09:22:51;96500.72;;;14.79;100.00
32761;BME280;19126;47.472;7.850;2022-11-03T09:25:19;96491.97;;;14.99;100.00
32761;BME280;19126;47.472;7.850;2022-11-03T09:27:46;96480.19;;;15.02;100.00
32761;BME280;19126;47.472;7.850;2022-11-03T09:30:15;96482.59;;;15.03;97.68
32761;BME280;19126;47.472;7.850;2022-11-03T09:32:45;96466.94;;;14.95;94.19
32761;BME280;19126;47.472;7.850;2022-11-03T09:35:12;96473.22;;;15.14;97.15
32761;BME280;19126;47.472;7.850;2022-11-03T09:37:41;96464.25;;;15.22;95.97
32761;BME280;19126;47.472;7.850;2022-11-03T09:40:12;96466.34;;;14.93;93.10
32761;BME280;19126;47.472;7.850;2022-11-03T09:42:40;96454.53;;;14.89;89.67
32761;BME280;19126;47.472;7.850;2022-11-03T09:45:09;96452.09;;;14.94;92.21
32761;BME280;19126;47.472;7.850;2022-11-03T09:47:40;96438.25;;;14.92;89.40
32761;BME280;19126;47.472;7.850;2022-11-03T09:50:13;96446.38;;;14.97;87.16
32761;BME280;19126;47.472;7.850;2022-11-03T09:52:41;96442.47;;;15.20;85.38
32761;BME280;19126;47.472;7.850;2022-11-03T09:55:13;96440.19;;;15.37;84.69
32761;BME280;19126;47.472;7.850;2022-11-03T09:57:41;96438.06;;;15.59;82.86
32761;BME280;19126;47.472;7.850;2022-11-03T10:00:18;96434.91;;;15.82;82.82
32761;BME280;19126;47.472;7.850;2022-11-03T10:02:47;96431.84;;;15.92;81.06
32761;BME280;19126;47.472;7.850;2022-11-03T10:05:19;96428.09;;;16.00;79.41
32761;BME280;19126;47.472;7.850;2022-11-03T10:07:49;96425.50;;;16.25;79.58
32761;BME280;19126;47.472;7.850;2022-11-03T10:10:19;96410.94;;;16.60;79.79
32761;BME280;19126;47.472;7.850;2022-11-03T10:12:48;96403.38;;;16.82;74.80
32761;BME280;19126;47.472;7.850;2022-11-03T10:15:20;96400.66;;;16.89;70.42
32761;BME280;19126;47.472;7.850;2022-11-03T10:17:49;96384.22;;;16.80;66.51
32761;BME280;19126;47.472;7.850;2022-11-03T10:20:19;96391.06;;;16.69;69.72
32761;BME280;19126;47.472;7.850;2022-11-03T10:22:51;96385.94;;;16.49;67.00
32761;BME280;19126;47.472;7.850;2022-11-03T10:25:33;96377.72;;;16.07;68.23
32761;BME280;19126;47.472;7.850;2022-11-03T10:28:17;96371.78;;;16.11;69.41
32761;BME280;19126;47.472;7.850;2022-11-03T10:30:54;96350.94;;;15.83;72.57
32761;BME280;19126;47.472;7.850;2022-11-03T10:33:32;96348.94;;;15.78;72.93
32761;BME280;19126;47.472;7.850;2022-11-03T10:36:02;96352.53;;;15.59;74.55
32761;BME280;19126;47.472;7.850;2022-11-03T10:38:31;96340.00;;;15.41;75.84
32761;BME280;19126;47.472;7.850;2022-11-03T10:41:11;96340.72;;;15.22;78.35
32761;BME280;19126;47.472;7.850;2022-11-03T10:43:39;96344.75;;;15.25;77.05
32761;BME280;19126;47.472;7.850;2022-11-03T10:46:14;96346.41;;;15.19;78.57
32761;BME280;19126;47.472;7.850;2022-11-03T10:48:43;96336.44;;;15.15;77.40
32761;BME280;19126;47.472;7.850;2022-11-03T10:51:17;96328.91;;;15.18;78.42
32761;BME280;19126;47.472;7.850;2022-11-03T10:53:45;96321.75;;;15.26;77.57
32761;BME280;19126;47.472;7.850;2022-11-03T10:56:12;96320.50;;;15.35;79.18
32761;BME280;19126;47.472;7.850;2022-11-03T10:58:39;96316.66;;;15.31;77.30
32761;BME280;19126;47.472;7.850;2022-11-03T11:01:09;96311.13;;;15.32;77.14
32761;BME280;19126;47.472;7.850;2022-11-03T11:03:41;96305.41;;;15.35;78.96
32761;BME280;19126;47.472;7.850;2022-11-03T11:06:18;96317.78;;;15.42;79.46
32761;BME280;19126;47.472;7.850;2022-11-03T11:08:48;96312.63;;;15.15;83.10
32761;BME280;19126;47.472;7.850;2022-11-03T11:11:16;96308.06;;;14.90;87.58
32761;BME280;19126;47.472;7.850;2022-11-03T11:13:44;96306.09;;;14.65;87.89
32761;BME280;19126;47.472;7.850;2022-11-03T11:16:47;96297.84;;;14.28;90.06
32761;BME280;19126;47.472;7.850;2022-11-03T11:19:15;96296.81;;;14.29;89.38
32761;BME280;19126;47.472;7.850;2022-11-03T11:22:12;96299.88;;;13.92;90.41
32761;BME280;19126;47.472;7.850;2022-11-03T11:25:00;96285.06;;;13.71;93.71
32761;BME280;19126;47.472;7.850;2022-11-03T11:28:00;96292.13;;;13.43;96.83
32761;BME280;19126;47.472;7.850;2022-11-03T11:31:27;96274.16;;;13.05;99.21
32761;BME280;19126;47.472;7.850;2022-11-03T11:34:39;96269.44;;;12.94;100.00
32761;BME280;19126;47.472;7.850;2022-11-03T11:37:34;96272.03;;;12.87;100.00
32761;BME280;19126;47.472;7.850;2022-11-03T11:40:10;96271.03;;;12.88;100.00
32761;BME280;19126;47.472;7.850;2022-11-03T11:43:25;96261.72;;;12.85;100.00
32761;BME280;19126;47.472;7.850;2022-11-03T11:46:24;96272.94;;;12.59;100.00
32761;BME280;19126;47.472;7.850;2022-11-03T11:49:15;96269.13;;;12.62;100.00
32761;BME280;19126;47.472;7.850;2022-11-03T11:51:42;96255.66;;;12.43;100.00
32761;BME280;19126;47.472;7.850;2022-11-03T11:54:15;96257.06;;;12.45;100.00
32761;BME280;19126;47.472;7.850;2022-11-03T11:56:45;96243.91;;;12.45;100.00
32761;BME280;19126;47.472;7.850;2022-11-03T11:59:20;96235.38;;;12.43;100.00
32761;BME280;19126;47.472;7.850;2022-11-03T12:01:50;96234.97;;;12.40;100.00
32761;BME280;19126;47.472;7.850;2022-11-03T12:04:21;96230.03;;;12.30;100.00
32761;BME280;19126;47.472;7.850;2022-11-03T12:06:49;96222.38;;;12.35;100.00
32761;BME280;19126;47.472;7.850;2022-11-03T12:09:20;96217.56;;;12.45;100.00
32761;BME280;19126;47.472;7.850;2022-11-03T12:11:50;96209.69;;;12.52;100.00
32761;BME280;19126;47.472;7.850;2022-11-03T12:14:24;96201.41;;;12.62;100.00
32761;BME280;19126;47.472;7.850;2022-11-03T12:16:52;96189.28;;;12.68;100.00
32761;BME280;19126;47.472;7.850;2022-11-03T12:19:39;96180.38;;;12.75;99.06
32761;BME280;19126;47.472;7.850;2022-11-03T12:22:09;96172.88;;;12.86;98.81
32761;BME280;19126;47.472;7.850;2022-11-03T12:24:50;96162.56;;;12.91;97.76
32761;BME280;19126;47.472;7.850;2022-11-03T12:27:39;96153.03;;;12.97;95.78
32761;BME280;19126;47.472;7.850;2022-11-03T12:30:14;96140.06;;;12.95;94.89
32761;BME280;19126;47.472;7.850;2022-11-03T12:32:42;96139.44;;;12.93;94.89
32761;BME280;19126;47.472;7.850;2022-11-03T12:35:10;96133.75;;;12.96;93.46
32761;BME280;19126;47.472;7.850;2022-11-03T12:37:38;96122.81;;;12.99;92.57
32761;BME280;19126;47.472;7.850;2022-11-03T12:40:10;96111.47;;;13.05;90.24
32761;BME280;19126;47.472;7.850;2022-11-03T12:42:37;96113.91;;;13.07;90.05
32761;BME280;19126;47.472;7.850;2022-11-03T12:45:06;96105.38;;;13.12;89.64
32761;BME280;19126;47.472;7.850;2022-11-03T12:47:34;96097.69;;;13.10;89.99
32761;BME280;19126;47.472;7.850;2022-11-03T12:50:02;96091.41;;;13.11;89.42
32761;BME280;19126;47.472;7.850;2022-11-03T12:52:29;96085.69;;;13.08;91.24
32761;BME280;19126;47.472;7.850;2022-11-03T12:54:56;96082.28;;;13.07;91.23
32761;BME280;19126;47.472;7.850;2022-11-03T12:57:25;96077.19;;;13.05;92.37
32761;BME280;19126;47.472;7.850;2022-11-03T12:59:52;96076.38;;;12.98;91.14
32761;BME280;19126;47.472;7.850;2022-11-03T13:02:20;96064.00;;;12.92;92.11
32761;BME280;19126;47.472;7.850;2022-11-03T13:04:47;96066.66;;;12.85;94.94
32761;BME280;19126;47.472;7.850;2022-11-03T13:07:14;96068.25;;;12.80;94.58
32761;BME280;19126;47.472;7.850;2022-11-03T13:09:41;96070.06;;;12.72;93.90
32761;BME280;19126;47.472;7.850;2022-11-03T13:12:11;96058.91;;;12.70;94.23
32761;BME280;19126;47.472;7.850;2022-11-03T13:14:58;96060.53;;;12.71;96.22
32761;BME280;19126;47.472;7.850;2022-11-03T13:17:25;96049.19;;;12.64;97.99
32761;BME280;19126;47.472;7.850;2022-11-03T13:19:53;96056.69;;;12.67;98.00
32761;BME280;19126;47.472;7.850;2022-11-03T13:22:20;96052.44;;;12.66;99.78
32761;BME280;19126;47.472;7.850;2022-11-03T13:24:49;96053.03;;;12.68;100.00
32761;BME280;19126;47.472;7.850;2022-11-03T13:27:16;96057.72;;;12.59;99.13
32761;BME280;19126;47.472;7.850;2022-11-03T13:29:43;96033.56;;;12.56;96.11
32761;BME280;19126;47.472;7.850;2022-11-03T13:32:12;96025.28;;;12.52;96.18